sensor_id;sensor_type;location;lat;lon;timestamp;P1;durP1;ratioP1;P2;durP2;ratioP2
48026;SDS011;50714;49.208;5.364;2024-01-15T00:08:33;24.25;;;15.70;;
48026;SDS011;50714;49.208;5.364;2024-01-15T00:18:33;26.80;;;15.93;;
48026;SDS011;50714;49.208;5.364;2024-01-15T00:28:33;28.98;;;17.83;;
48026;SDS011;50714;49.208;5.364;2024-01-15T00:38:34;28.10;;;17.85;;
48026;SDS011;50714;49.208;5.364;2024-01-15T00:48:34;24.85;;;16.25;;
48026;SDS011;50714;49.208;5.364;2024-01-15T00:58:34;29.15;;;18.85;;
48026;SDS011;50714;49.208;5.364;2024-01-15T01:08:35;27.35;;;17.45;;
48026;SDS011;50714;49.208;5.364;2024-01-15T01:18:35;25.77;;;17.45;;
48026;SDS011;50714;49.208;5.364;2024-01-15T01:28:36;31.50;;;19.10;;
48026;SDS011;50714;49.208;5.364;2024-01-15T01:38:37;29.10;;;19.50;;
48026;SDS011;50714;49.208;5.364;2024-01-15T01:48:38;35.03;;;21.30;;
48026;SDS011;50714;49.208;5.364;2024-01-15T01:58:38;37.17;;;22.05;;
48026;SDS011;50714;49.208;5.364;2024-01-15T02:08:39;36.65;;;22.38;;
48026;SDS011;50714;49.208;5.364;2024-01-15T02:18:43;39.70;;;24.15;;
48026;SDS011;50714;49.208;5.364;2024-01-15T02:28:44;40.65;;;24.67;;
48026;SDS011;50714;49.208;5.364;2024-01-15T02:38:44;49.10;;;29.02;;
48026;SDS011;50714;49.208;5.364;2024-01-15T02:48:45;38.65;;;24.13;;
48026;SDS011;50714;49.208;5.364;2024-01-15T02:58:45;31.98;;;21.48;;
48026;SDS011;50714;49.208;5.364;2024-01-15T03:08:45;28.63;;;20.00;;
48026;SDS011;50714;49.208;5.364;2024-01-15T03:18:46;32.90;;;21.90;;
48026;SDS011;50714;49.208;5.364;2024-01-15T03:28:46;27.27;;;17.13;;
48026;SDS011;50714;49.208;5.364;2024-01-15T03:38:46;29.30;;;19.98;;
48026;SDS011;50714;49.208;5.364;2024-01-15T03:48:47;24.67;;;16.70;;
48026;SDS011;50714;49.208;5.364;2024-01-15T03:58:47;28.02;;;18.50;;
48026;SDS011;50714;49.208;5.364;2024-01-15T04:08:47;27.75;;;19.02;;
48026;SDS011;50714;49.208;5.364;2024-01-15T04:18:47;25.00;;;17.65;;
48026;SDS011;50714;49.208;5.364;2024-01-15T04:28:48;26.95;;;18.83;;
48026;SDS011;50714;49.208;5.364;2024-01-15T04:38:48;31.60;;;19.77;;
48026;SDS011;50714;49.208;5.364;2024-01-15T04:48:48;29.55;;;18.90;;
48026;SDS011;50714;49.208;5.364;2024-01-15T04:58:49;27.60;;;18.05;;
48026;SDS011;50714;49.208;5.364;2024-01-15T05:08:49;27.90;;;18.85;;
48026;SDS011;50714;49.208;5.364;2024-01-15T05:18:49;27.05;;;18.40;;
48026;SDS011;50714;49.208;5.364;2024-01-15T05:28:50;26.92;;;17.45;;
48026;SDS011;50714;49.208;5.364;2024-01-15T05:38:50;29.02;;;18.67;;
48026;SDS011;50714;49.208;5.364;2024-01-15T05:48:51;25.65;;;17.00;;
48026;SDS011;50714;49.208;5.364;2024-01-15T05:58:52;24.05;;;16.33;;
48026;SDS011;50714;49.208;5.364;2024-01-15T06:08:52;24.13;;;16.17;;
48026;SDS011;50714;49.208;5.364;2024-01-15T06:18:53;21.63;;;15.57;;
48026;SDS011;50714;49.208;5.364;2024-01-15T06:28:53;24.40;;;16.63;;
48026;SDS011;50714;49.208;5.364;2024-01-15T06:38:53;20.85;;;14.60;;
48026;SDS011;50714;49.208;5.364;2024-01-15T06:48:54;21.75;;;14.93;;
48026;SDS011;50714;49.208;5.364;2024-01-15T06:58:54;18.05;;;13.38;;
48026;SDS011;50714;49.208;5.364;2024-01-15T07:08:54;17.65;;;12.80;;
48026;SDS011;50714;49.208;5.364;2024-01-15T07:18:55;22.05;;;15.98;;
48026;SDS011;50714;49.208;5.364;2024-01-15T07:28:55;19.50;;;14.87;;
48026;SDS011;50714;49.208;5.364;2024-01-15T07:38:56;18.00;;;13.40;;
48026;SDS011;50714;49.208;5.364;2024-01-15T07:48:56;20.40;;;15.98;;
48026;SDS011;50714;49.208;5.364;2024-01-15T07:58:57;28.10;;;19.73;;
48026;SDS011;50714;49.208;5.364;2024-01-15T08:08:58;20.33;;;15.45;;
48026;SDS011;50714;49.208;5.364;2024-01-15T08:18:59;18.65;;;14.82;;
48026;SDS011;50714;49.208;5.364;2024-01-15T08:28:59;28.00;;;19.15;;
48026;SDS011;50714;49.208;5.364;2024-01-15T08:39:00;27.15;;;20.08;;
48026;SDS011;50714;49.208;5.364;2024-01-15T08:49:00;26.23;;;19.67;;
48026;SDS011;50714;49.208;5.364;2024-01-15T08:59:01;24.50;;;16.88;;
48026;SDS011;50714;49.208;5.364;2024-01-15T09:09:01;22.38;;;15.85;;
48026;SDS011;50714;49.208;5.364;2024-01-15T09:19:02;17.88;;;13.38;;
48026;SDS011;50714;49.208;5.364;2024-01-15T09:29:03;15.57;;;11.18;;
48026;SDS011;50714;49.208;5.364;2024-01-15T09:39:03;15.70;;;11.57;;
48026;SDS011;50714;49.208;5.364;2024-01-15T09:49:04;14.10;;;11.05;;
48026;SDS011;50714;49.208;5.364;2024-01-15T09:59:05;13.38;;;10.43;;
48026;SDS011;50714;49.208;5.364;2024-01-15T10:09:06;13.70;;;11.23;;
48026;SDS011;50714;49.208;5.364;2024-01-15T10:19:08;14.27;;;10.65;;
48026;SDS011;50714;49.208;5.364;2024-01-15T10:29:09;14.30;;;11.40;;
48026;SDS011;50714;49.208;5.364;2024-01-15T10:39:10;14.15;;;10.70;;
48026;SDS011;50714;49.208;5.364;2024-01-15T10:49:13;14.95;;;11.32;;
48026;SDS011;50714;49.208;5.364;2024-01-15T10:59:14;14.13;;;11.75;;
48026;SDS011;50714;49.208;5.364;2024-01-15T11:09:14;14.75;;;11.98;;
48026;SDS011;50714;49.208;5.364;2024-01-15T11:19:15;13.00;;;10.55;;
48026;SDS011;50714;49.208;5.364;2024-01-15T11:59:50;9.63;;;7.97;;
48026;SDS011;50714;49.208;5.364;2024-01-15T12:09:51;8.85;;;7.30;;
48026;SDS011;50714;49.208;5.364;2024-01-15T12:19:51;10.15;;;7.43;;
48026;SDS011;50714;49.208;5.364;2024-01-15T12:29:54;7.90;;;6.03;;
48026;SDS011;50714;49.208;5.364;2024-01-15T12:39:55;8.73;;;5.22;;
48026;SDS011;50714;49.208;5.364;2024-01-15T12:49:55;6.70;;;4.50;;
48026;SDS011;50714;49.208;5.364;2024-01-15T12:59:55;6.57;;;4.38;;
48026;SDS011;50714;49.208;5.364;2024-01-15T13:09:55;5.32;;;3.78;;
48026;SDS011;50714;49.208;5.364;2024-01-15T13:19:56;3.60;;;2.65;;
48026;SDS011;50714;49.208;5.364;2024-01-15T13:29:56;4.13;;;2.80;;
48026;SDS011;50714;49.208;5.364;2024-01-15T13:39:57;4.53;;;3.00;;
48026;SDS011;50714;49.208;5.364;2024-01-15T13:49:58;4.80;;;3.25;;
48026;SDS011;50714;49.208;5.364;2024-01-15T13:59:59;4.85;;;3.00;;
48026;SDS011;50714;49.208;5.364;2024-01-15T14:10:00;3.08;;;2.50;;
48026;SDS011;50714;49.208;5.364;2024-01-15T14:20:00;4.10;;;2.67;;
48026;SDS011;50714;49.208;5.364;2024-01-15T14:30:00;2.92;;;2.10;;
48026;SDS011;50714;49.208;5.364;2024-01-15T14:40:01;3.50;;;2.42;;
48026;SDS011;50714;49.208;5.364;2024-01-15T14:50:01;3.72;;;2.30;;
48026;SDS011;50714;49.208;5.364;2024-01-15T15:00:01;3.42;;;2.20;;
48026;SDS011;50714;49.208;5.364;2024-01-15T15:10:02;2.72;;;1.67;;
48026;SDS011;50714;49.208;5.364;2024-01-15T15:20:06;2.22;;;1.60;;
48026;SDS011;50714;49.208;5.364;2024-01-15T15:30:07;3.03;;;2.20;;
48026;SDS011;50714;49.208;5.364;2024-01-15T15:40:08;2.80;;;1.70;;
48026;SDS011;50714;49.208;5.364;2024-01-15T15:50:10;2.67;;;1.60;;
48026;SDS011;50714;49.208;5.364;2024-01-15T16:00:11;1.63;;;1.50;;
48026;SDS011;50714;49.208;5.364;2024-01-15T16:10:11;2.50;;;1.73;;
48026;SDS011;50714;49.208;5.364;2024-01-15T16:20:12;4.05;;;3.00;;
48026;SDS011;50714;49.208;5.364;2024-01-15T16:30:12;4.25;;;2.53;;
48026;SDS011;50714;49.208;5.364;2024-01-15T16:40:13;5.05;;;3.72;;
48026;SDS011;50714;49.208;5.364;2024-01-15T16:50:13;6.80;;;4.13;;
48026;SDS011;50714;49.208;5.364;2024-01-15T17:00:13;3.83;;;2.60;;
48026;SDS011;50714;49.208;5.364;2024-01-15T17:10:14;5.95;;;3.70;;
48026;SDS011;50714;49.208;5.364;2024-01-15T17:20:15;6.37;;;4.47;;
48026;SDS011;50714;49.208;5.364;2024-01-15T17:30:15;4.55;;;2.92;;
48026;SDS011;50714;49.208;5.364;2024-01-15T17:40:16;2.50;;;1.75;;
48026;SDS011;50714;49.208;5.364;2024-01-15T17:50:16;3.20;;;1.77;;
48026;SDS011;50714;49.208;5.364;2024-01-15T18:00:18;2.13;;;1.60;;
48026;SDS011;50714;49.208;5.364;2024-01-15T18:10:19;2.40;;;1.70;;
48026;SDS011;50714;49.208;5.364;2024-01-15T18:20:20;2.70;;;1.75;;
48026;SDS011;50714;49.208;5.364;2024-01-15T18:30:20;2.10;;;1.70;;
48026;SDS011;50714;49.208;5.364;2024-01-15T18:40:21;2.97;;;1.75;;
48026;SDS011;50714;49.208;5.364;2024-01-15T18:50:22;2.72;;;2.53;;
48026;SDS011;50714;49.208;5.364;2024-01-15T19:00:22;1.65;;;1.50;;
48026;SDS011;50714;49.208;5.364;2024-01-15T19:10:24;2.63;;;1.63;;
48026;SDS011;50714;49.208;5.364;2024-01-15T19:20:24;4.20;;;3.03;;
48026;SDS011;50714;49.208;5.364;2024-01-15T19:30:24;6.53;;;3.22;;
48026;SDS011;50714;49.208;5.364;2024-01-15T19:40:25;6.65;;;4.15;;
48026;SDS011;50714;49.208;5.364;2024-01-15T19:50:25;8.20;;;5.15;;
48026;SDS011;50714;49.208;5.364;2024-01-15T20:00:25;3.63;;;2.40;;
48026;SDS011;50714;49.208;5.364;2024-01-15T20:10:26;3.03;;;1.98;;
48026;SDS011;50714;49.208;5.364;2024-01-15T20:20:26;3.20;;;2.43;;
48026;SDS011;50714;49.208;5.364;2024-01-15T20:30:27;4.75;;;2.08;;
48026;SDS011;50714;49.208;5.364;2024-01-15T20:40:27;4.18;;;3.00;;
48026;SDS011;50714;49.208;5.364;2024-01-15T20:50:27;4.05;;;2.63;;
48026;SDS011;50714;49.208;5.364;2024-01-15T21:00:27;4.03;;;2.80;;
48026;SDS011;50714;49.208;5.364;2024-01-15T21:10:28;3.85;;;2.17;;
48026;SDS011;50714;49.208;5.364;2024-01-15T21:20:29;4.50;;;3.28;;
48026;SDS011;50714;49.208;5.364;2024-01-15T21:30:29;3.60;;;2.60;;
48026;SDS011;50714;49.208;5.364;2024-01-15T21:40:34;11.60;;;7.53;;
48026;SDS011;50714;49.208;5.364;2024-01-15T21:50:35;5.60;;;3.83;;
48026;SDS011;50714;49.208;5.364;2024-01-15T22:00:35;5.35;;;3.83;;
48026;SDS011;50714;49.208;5.364;2024-01-15T22:10:36;4.40;;;4.00;;
48026;SDS011;50714;49.208;5.364;2024-01-15T22:20:36;5.18;;;4.10;;
48026;SDS011;50714;49.208;5.364;2024-01-15T22:30:36;3.47;;;2.53;;
48026;SDS011;50714;49.208;5.364;2024-01-15T22:40:37;4.72;;;3.33;;
48026;SDS011;50714;49.208;5.364;2024-01-15T22:50:37;2.75;;;2.20;;
48026;SDS011;50714;49.208;5.364;2024-01-15T23:00:37;3.53;;;2.25;;
48026;SDS011;50714;49.208;5.364;2024-01-15T23:10:38;5.10;;;2.75;;
48026;SDS011;50714;49.208;5.364;2024-01-15T23:20:38;4.57;;;2.58;;
48026;SDS011;50714;49.208;5.364;2024-01-15T23:30:39;3.40;;;2.63;;
48026;SDS011;50714;49.208;5.364;2024-01-15T23:40:39;3.83;;;3.10;;
48026;SDS011;50714;49.208;5.364;2024-01-15T23:50:39;3.83;;;2.75;;
